Terminal Aerodrome Forecast
Issued by NWS

Home | Current Version | Previous Version | Text Only | Print | Product List | Glossary On
Versions: 1 2 3 4 5 6 7 8 9 10 11 12 13
979
FTAK31 PAJN 080540
TAFAWG
TAF
PAWG 080540Z 0806/0906 14004KT P6SM VCSH BKN045 OVC070
     FM081200 12010KT 6SM -RA BR SCT015 OVC030
     FM081500 12010G20KT 2SM -RA BR SCT007 BKN015 OVC030
      WS020/16035KT
     FM082200 12008KT 2SM -RA BR BKN007 OVC015 WS020/17040KT
     FM090300 12010G20KT 4SM -RA BR SCT007 OVC015
      AMD LTD TO CLD VIS AND WIND 0806/0815=

USA.gov is the U.S. government's official web portal to all federal, state and local government web resources and services.